Canadian Enterprise — VCJM — position and weather

sailwx.info

Track history (hours):
 
Tides and Currents Weather Stations Pressure Air Temp Water Temp Dewpoint Dewpoint Depression Visibility Wind Speed Wind Dir Waves Ship Positions

Canadian Enterprise

Last reported at 2018-Jan-21 00:00 UTC. Time now 2018-Jan-21 01:10 UTC.
Position N 43°42' W 081°42'.

Length 27 m; draft 4.2 m.

Type: Tug. MMSI: 314954697.

Wind from 180 at 4 knots

Barometer 1015.2 mb
Air temperature 2.4 ° C
Dewpoint 1.6 ° C

Date/timePositionNaut miles runAvg speedWind from/ knotsBaromVisibWave heightAir tempDewpointWater temp
2018-Jan-21 00:00N 43°42' W 081°42'0 0.0 180 / 41015.2 2.4 1.6
2018-Jan-20 23:00N 43°42' W 081°42'0 0.0 190 / 31014.5 2.0 1.8
2018-Jan-20 22:00N 43°42' W 081°42'0 0.0 190 / 11014.3 1.5 1.4
2018-Jan-20 21:00N 43°42' W 081°42'0 0.0 190 / 31014.0 2.0 1.8
2018-Jan-20 20:00N 43°42' W 081°42'0 0.0 190 / 61012.6 2.1 1.9
2018-Jan-20 19:00N 43°42' W 081°42'0 0.0 190 / 61012.4 1.4 1.2
2018-Jan-20 18:00N 43°42' W 081°42'0 0.0 190 / 31011.9 1.7 1.5
2018-Jan-20 17:00N 43°42' W 081°42'0 0.0 180 / 61012.1 1.5 1.3
2018-Jan-20 16:00N 43°42' W 081°42'0 0.0 170 / 41012.2 1.4 1.2
2018-Jan-20 15:00N 43°42' W 081°42'0 0.0 160 / 31011.2 1.0 0.8
2018-Jan-20 14:00N 43°42' W 081°42'4 4.3 170 / 51010.3 0.3 0.2
2018-Jan-20 13:00N 43°42' W 081°48'4 4.3 210 / 71009.5 0.8 0.7
2018-Jan-20 12:00N 43°42' W 081°54'0 0.0 230 / 141008.0 2.3 1.7
2018-Jan-20 11:00N 43°42' W 081°54'0 0.0 210 / 151007.3 1.0 0.8
2018-Jan-20 10:00N 43°42' W 081°54'0 0.0 200 / 191006.2 1.1 0.7
2018-Jan-20 09:00N 43°42' W 081°54'0 0.0 200 / 131005.3 1.2 0.4
2018-Jan-20 08:00N 43°42' W 081°54'0 0.0 210 / 161005.4 1.5 0.2
2018-Jan-20 07:00N 43°42' W 081°54'0 0.0 200 / 201004.7 1.6 0.3
2018-Jan-20 06:00N 43°42' W 081°54'6 6.0 210 / 141004.5 1.6 0.4
2018-Jan-20 05:00N 43°36' W 081°54'6 1.2 210 / 131004.6 1.4 0.7
2018-Jan-20 00:00N 43°42' W 081°54'6 6.0 180 / 221006.5 -0.4-1.2
2018-Jan-19 23:00N 43°36' W 081°54'12 6.0 180 / 151007.1 -0.8-1.1
2018-Jan-19 21:00N 43°48' W 081°54'0 0.0 190 / 251007.8 -0.8-1.7
2018-Jan-19 20:00N 43°48' W 081°54'0 0.0 180 / 221008.2 -1.3-2.3
2018-Jan-19 19:00N 43°48' W 081°54'0 0.0 180 / 231008.9 -1.8-3.1
2018-Jan-19 18:00N 43°48' W 081°54'0 0.0 190 / 241010.3 -2.0-2.7
2018-Jan-19 17:00N 43°48' W 081°54'0 0.0 200 / 211011.3 -2.3-2.6
2018-Jan-19 16:00N 43°48' W 081°54'6 6.0 200 / 201011.7 -2.3-2.5
2018-Jan-19 15:00N 43°42' W 081°54'0 0.0 200 / 171011.8 -2.5-2.8
2018-Jan-19 14:00N 43°42' W 081°54'0 0.0 200 / 201011.9 -2.4-2.6
2018-Jan-19 13:00N 43°42' W 081°54'0 0.0 210 / 61012.2 -1.5-1.8
2018-Jan-19 12:00N 43°42' W 081°54'0 0.0 210 / 131011.7 -2.1-2.3
2018-Jan-19 11:00N 43°42' W 081°54'0 0.0 230 / 201011.9 -1.6-3.0
2018-Jan-19 10:00N 43°42' W 081°54'0 0.0 240 / 201012.1 -1.4-2.8
2018-Jan-19 09:00N 43°42' W 081°54'0 0.0 240 / 181012.1 -1.1-2.1
2018-Jan-19 08:00N 43°42' W 081°54'0 0.0 240 / 171011.8 -1.6-3.7
2018-Jan-19 07:00N 43°42' W 081°54'6 6.0 240 / 231011.8 -1.2-4.0
2018-Jan-19 06:00N 43°48' W 081°54'6 6.0 240 / 191012.2 -0.4-4.5
2018-Jan-19 05:00N 43°42' W 081°54'6 6.0 240 / 161012.7 -1.0-5.7
2018-Jan-19 04:00N 43°36' W 081°54'7 7.4 190 / 81013.4 -2.3-3.9
2018-Jan-19 03:00N 43°30' W 082°00'7 7.4 210 / 91013.2 -1.1-4.6
2018-Jan-19 02:00N 43°24' W 082°06'7 7.4 200 / 141012.2 1.7-3.7
2018-Jan-19 01:00N 43°18' W 082°12'7 7.4 200 / 171012.9 2.0-3.9
2018-Jan-19 00:00N 43°12' W 082°18'4 4.4 200 / 141013.2 4.2-3.2
2018-Jan-18 23:00N 43°12' W 082°24'1212.0 190 / 101014.3 1.8-4.4
2018-Jan-18 22:00N 43°00' W 082°24'7 7.4 200 / 111015.1 -2.6-7.3
2018-Jan-18 21:00N 42°54' W 082°30'1212.0 200 / 111015.4 -3.0-8.0
2018-Jan-18 20:00N 42°42' W 082°30'6 3.0 210 / 12 -3.0-8.7
2018-Jan-18 18:00N 42°36' W 082°30'4 4.4 220 / 91018.1 -3.5-9.0
2018-Jan-18 17:00N 42°36' W 082°36'0 0.0 210 / 51019.1 -3.1-8.3
2018-Jan-18 16:00N 42°36' W 082°36'7 7.5 220 / 81019.9 -5.3-9.0
2018-Jan-18 15:00N 42°30' W 082°42'0 0.0 220 / 71019.5 -3.0-7.4
2018-Jan-18 14:00N 42°30' W 082°42'7 7.5 230 / 111019.7 -7.8-9.8
2018-Jan-18 13:00N 42°24' W 082°48'7 7.5 220 / 131019.8 -8.3-10.8
2018-Jan-18 12:00N 42°18' W 082°54'9 8.9 250 / 91019.9 -8.5-10.8
2018-Jan-18 11:00N 42°18' W 083°06'0 0.0 230 / 9 -9.8-12.4
2018-Jan-18 10:00N 42°18' W 083°06'0 0.0 230 / 8 -9.8-12.5
2018-Jan-18 09:00N 42°18' W 083°06'0 0.0 230 / 9 -9.8-12.9
2018-Jan-18 08:00N 42°18' W 083°06'0 0.0 240 / 9 -9.4-13.0
2018-Jan-18 07:00N 42°18' W 083°06'0 0.0 240 / 10 -8.8-13.0
2018-Jan-18 06:00N 42°18' W 083°06'0 0.0 230 / 11 -8.3-12.7
2018-Jan-18 05:00N 42°18' W 083°06'0 0.0 230 / 11 -8.2-12.4
2018-Jan-18 04:00N 42°18' W 083°06'0 0.0 230 / 10 -8.0-12.0
2018-Jan-18 03:00N 42°18' W 083°06'0 0.0 230 / 11 -7.8-11.8
2018-Jan-18 02:00N 42°18' W 083°06'0 0.0 220 / 9 -7.1-11.1
2018-Jan-18 01:00N 42°18' W 083°06'0 0.0 230 / 11 -6.9-10.3
2018-Jan-18 00:00N 42°18' W 083°06'0 0.0 220 / 11 -6.7-9.5
2018-Jan-17 23:00N 42°18' W 083°06'0 0.0 220 / 12 -6.7-8.7
2018-Jan-17 22:00N 42°18' W 083°06'0 0.0 220 / 12 -6.1-9.3
2018-Jan-17 21:00N 42°18' W 083°06'0 0.0 230 / 9 -5.2-9.2
2018-Jan-17 20:00N 42°18' W 083°06'0 0.0 230 / 10 -4.9-9.2
2018-Jan-17 19:00N 42°18' W 083°06'0 0.0 220 / 9 -5.3-9.7
2018-Jan-17 18:00N 42°18' W 083°06'0 0.0 230 / 6 -6.6-10.8
2018-Jan-17 17:00N 42°18' W 083°06'0 0.0 220 / 5 -8.1-12.2
2018-Jan-17 16:00N 42°18' W 083°06'0 0.0 230 / 1 -10.3-12.4
2018-Jan-17 15:00N 42°18' W 083°06'0 0.0 230 / 2 -11.4-12.2
2018-Jan-17 14:00N 42°18' W 083°06'0 0.0 230 / 4 -13.5-13.7
2018-Jan-17 13:00N 42°18' W 083°06'0 0.0 -14.2-14.4
2018-Jan-17 12:00N 42°18' W 083°06'0 0.0 230 / 2 -14.5-14.8
2018-Jan-17 11:00N 42°18' W 083°06'0 0.0 250 / 3 -13.7-14.0
2018-Jan-17 10:00N 42°18' W 083°06'0 0.0 210 / 2 -13.8-14.0
2018-Jan-17 09:00N 42°18' W 083°06'0 0.0 -13.6-13.8
2018-Jan-17 08:00N 42°18' W 083°06'0 0.0 220 / 1 -13.2-13.5
2018-Jan-17 07:00N 42°18' W 083°06'0 0.0 240 / 1 -11.6-12.5
2018-Jan-17 06:00N 42°18' W 083°06'0 0.0 240 / 3 -11.2-11.9
2018-Jan-17 05:00N 42°18' W 083°06'0 0.0 240 / 2 -10.9-11.6
2018-Jan-17 04:00N 42°18' W 083°06'0 0.0 230 / 2 -11.2-11.7
2018-Jan-17 03:00N 42°18' W 083°06'0 0.0 230 / 2 -12.0-12.3
2018-Jan-17 02:00N 42°18' W 083°06'0 0.0 230 / 1 -11.9-12.5
2018-Jan-17 01:00N 42°18' W 083°06'0 0.0 230 / 1 -11.7-12.5
2018-Jan-17 00:00N 42°18' W 083°06'0 0.0 230 / 2 -11.6-12.2
2018-Jan-16 23:00N 42°18' W 083°06'0 0.0 230 / 2 -10.9-11.2
2018-Jan-16 22:00N 42°18' W 083°06'0 0.0 220 / 2 -8.8-10.1
2018-Jan-16 21:00N 42°18' W 083°06'0 0.0 250 / 2 -10.5-10.9
2018-Jan-16 20:00N 42°18' W 083°06'32 2.5 240 / 5 -10.5-10.8
2018-Jan-16 07:00N 42°36' W 082°30'0 0.0 1026.3 -5.8-5.9
2018-Jan-16 06:00N 42°36' W 082°30'0 0.0 1026.1 -6.4-6.4
2018-Jan-16 05:00N 42°36' W 082°30'6 2.0 1025.8 -6.0-6.0
2018-Jan-16 02:00N 42°42' W 082°30'0 0.0 060 / 11025.7 -6.6-6.7
2018-Jan-16 01:00N 42°42' W 082°30'0 0.0 080 / 11025.7 -6.7-6.8
2018-Jan-16 00:00N 42°42' W 082°30'0 0.0 100 / 11025.6 -6.8-6.9
2018-Jan-15 23:00N 42°42' W 082°30'6 6.0 080 / 2 -6.8-7.0
2018-Jan-15 22:00N 42°48' W 082°30'7 7.4 150 / 111025.4 -6.9-7.0
2018-Jan-15 21:00N 42°54' W 082°24'1212.0 100 / 71025.3 -7.4-7.7
2018-Jan-15 20:00N 43°06' W 082°24'0 0.0 110 / 121025.6 -7.7-8.0
2018-Jan-15 17:00N 43°06' W 082°24'0 0.0 140 / 101028.9 -8.4-8.8
2018-Jan-15 16:00N 43°06' W 082°24'0 0.0 140 / 101029.8 -8.2-10.4
2018-Jan-15 15:00N 43°06' W 082°24'0 0.0 130 / 91029.9 -8.5-11.5
2018-Jan-15 14:00N 43°06' W 082°24'0 0.0 140 / 101030.0 -8.6-11.5
2018-Jan-15 13:00N 43°06' W 082°24'0 0.0 140 / 91030.3 -8.6-11.6
2018-Jan-15 12:00N 43°06' W 082°24'0 0.0 130 / 101030.6 -8.5-11.2
2018-Jan-15 11:00N 43°06' W 082°24'0 0.0 130 / 91031.0 -8.3-11.8
2018-Jan-15 10:00N 43°06' W 082°24'0 0.0 150 / 81031.6 -8.4-13.0
2018-Jan-15 09:00N 43°06' W 082°24'0 0.0 150 / 81032.3 -8.5-12.9
2018-Jan-15 08:00N 43°06' W 082°24'0 0.0 150 / 81032.9 -8.7-12.7
2018-Jan-15 07:00N 43°06' W 082°24'0 0.0 150 / 81032.8 -8.6-12.5
2018-Jan-15 06:00N 43°06' W 082°24'0 0.0 140 / 91033.6 -8.9-12.8
2018-Jan-15 05:00N 43°06' W 082°24'0 0.0 140 / 91034.2 -9.0-12.9
2018-Jan-15 04:00N 43°06' W 082°24'0 0.0 150 / 91034.3 -9.1-12.7
2018-Jan-15 03:00N 43°06' W 082°24'0 0.0 150 / 91035.0 -9.0-13.1
2018-Jan-15 02:00N 43°06' W 082°24'0 0.0 160 / 101035.6 -9.0-13.7
2018-Jan-15 01:00N 43°06' W 082°24'0 0.0 170 / 91035.4 -8.5-13.8
2018-Jan-15 00:00N 43°06' W 082°24'0 0.0 170 / 121035.5 -8.2-13.3
2018-Jan-14 23:00N 43°06' W 082°24'0 0.0 150 / 111035.1 -8.4-12.5
2018-Jan-14 22:00N 43°06' W 082°24'7 7.4 170 / 91035.2 -8.0-14.1
2018-Jan-14 21:00N 43°12' W 082°18'7 7.4 170 / 111035.8 -7.9-14.4
2018-Jan-14 20:00N 43°18' W 082°12'1312.8 190 / 131036.3 -7.9-13.5
2018-Jan-14 19:00N 43°30' W 082°06'1110.6 190 / 101036.8 -8.3-13.7
2018-Jan-14 18:00N 43°36' W 081°54'6 6.0 200 / 91037.6 -8.0-14.6
2018-Jan-14 17:00N 43°42' W 081°54'9 8.7 200 / 91038.3 -8.0-14.2
2018-Jan-14 16:00N 43°42' W 081°42'0 0.0 190 / 51039.4 -8.8-11.6
2018-Jan-14 15:00N 43°42' W 081°42'0 0.0 250 / 31038.9 -8.0-13.9
2018-Jan-14 14:00N 43°42' W 081°42'0 0.0 260 / 21038.2 -8.2-14.1
2018-Jan-14 13:00N 43°42' W 081°42'0 0.0 260 / 61037.9 -8.1-13.6
2018-Jan-14 12:00N 43°42' W 081°42'0 0.0 280 / 101037.4 -8.0-13.2
2018-Jan-14 11:00N 43°42' W 081°42'0 0.0 280 / 101036.7 -8.0-11.2
2018-Jan-14 09:00N 43°42' W 081°42'0 0.0 1036.8 -9.6-9.9
2018-Jan-14 08:00N 43°42' W 081°42'0 0.0 130 / 11036.4 -10.5-10.8
2018-Jan-14 07:00N 43°42' W 081°42'0 0.0 110 / 11035.8 -10.7-11.2
2018-Jan-14 06:00N 43°42' W 081°42'0 0.0 080 / 21035.5 -8.4-10.9
2018-Jan-14 05:00N 43°42' W 081°42'0 0.0 300 / 51035.4 -8.3-14.2
2018-Jan-14 04:00N 43°42' W 081°42'0 0.0 290 / 101035.3 -8.6-12.8
2018-Jan-14 03:00N 43°42' W 081°42'0 0.0 300 / 21035.2 -8.8-11.0
2018-Jan-14 02:00N 43°42' W 081°42'0 0.0 300 / 21034.5 -8.8-14.1
2018-Jan-14 01:00N 43°42' W 081°42'0 0.0 300 / 101034.0 -9.0-12.8
2018-Jan-14 00:00N 43°42' W 081°42'0 0.0 300 / 81033.6 -9.5-10.6
2018-Jan-13 23:00N 43°42' W 081°42'7 0.2 300 / 11033.5 -9.9-10.2
2018-Jan-12 15:00N 43°48' W 081°48'7 7.4 350 / 201010.2 -2.5-2.4
2018-Jan-12 14:00N 43°42' W 081°54'0 0.0 330 / 231009.2 -2.0-1.9
2018-Jan-12 13:00N 43°42' W 081°54'0 0.0 330 / 201007.8 -1.4-1.2
2018-Jan-12 12:00N 43°42' W 081°54'0 0.0 340 / 151006.7 -0.7-0.5
2018-Jan-12 11:00N 43°42' W 081°54'0 0.0 340 / 171006.7 -0.2-0.0
2018-Jan-12 10:00N 43°42' W 081°54'0 0.0 340 / 141005.5 0.3 0.5
2018-Jan-12 09:00N 43°42' W 081°54'0 0.0 340 / 111005.0 1.8 2.0
2018-Jan-12 08:00N 43°42' W 081°54'0 0.0 210 / 131003.9 7.3 7.5
2018-Jan-12 07:00N 43°42' W 081°54'0 0.0 190 / 131004.0 6.0 6.2
2018-Jan-12 06:00N 43°42' W 081°54'0 0.0 180 / 151004.5 6.1 6.3
2018-Jan-12 05:00N 43°42' W 081°54'6 6.0 180 / 51004.6 6.1 6.3
2018-Jan-12 04:00N 43°48' W 081°54'6 6.0 180 / 111005.3 6.0 6.2
2018-Jan-12 03:00N 43°42' W 081°54'0 0.0 170 / 111005.5 5.7 5.9
2018-Jan-12 02:00N 43°42' W 081°54'0 0.0 180 / 121006.1 6.2 6.4
2018-Jan-12 01:00N 43°42' W 081°54'0 0.0 160 / 101007.0 6.1 6.3
2018-Jan-12 00:00N 43°42' W 081°54'0 0.0 170 / 111007.5 6.0 6.2
2018-Jan-11 23:00N 43°42' W 081°54'0 0.0 170 / 131007.9 6.0 6.1
2018-Jan-11 22:00N 43°42' W 081°54'0 0.0 160 / 101008.7 6.1 6.3
2018-Jan-11 21:00N 43°42' W 081°54'0 0.0 160 / 121008.7 5.7 5.8
2018-Jan-11 20:00N 43°42' W 081°54'0 0.0 170 / 91009.1 5.8 5.9
2018-Jan-11 19:00N 43°42' W 081°54'1313.0 180 / 131009.0 5.9 6.0
2018-Jan-11 18:00N 43°42' W 082°12'1514.8 180 / 231009.1 6.6 6.8
2018-Jan-11 17:00N 43°54' W 082°24'1110.5 180 / 201009.3 5.5 5.7
2018-Jan-11 16:00N 44°00' W 082°36'1312.8 170 / 211008.7 4.8 5.0
2018-Jan-11 15:00N 44°12' W 082°42'6 6.0 170 / 231008.7 4.5 4.6
2018-Jan-11 14:00N 44°18' W 082°42'7 7.4 170 / 211008.4 5.4 5.5
2018-Jan-11 13:00N 44°24' W 082°48'6 6.0 170 / 211007.7 5.0 5.1
2018-Jan-11 12:00N 44°30' W 082°48'7 7.4 170 / 191007.6 4.9 5.0
2018-Jan-11 11:00N 44°36' W 082°54'6 6.0 180 / 231007.3 5.3 5.4
2018-Jan-11 10:00N 44°42' W 082°54'6 6.0 190 / 251007.5 6.0 6.2
2018-Jan-11 09:00N 44°48' W 082°54'6 6.0 210 / 191007.7 5.1 5.3
2018-Jan-11 08:00N 44°54' W 082°54'1212.0 200 / 221007.4 4.7 4.8
2018-Jan-11 07:00N 45°06' W 082°54'6 6.0 190 / 221006.8 5.2 5.3
2018-Jan-11 06:00N 45°12' W 082°54'7 7.3 190 / 131007.8 4.1 4.2
2018-Jan-11 05:00N 45°18' W 083°00'7 7.3 200 / 71008.0 4.1 4.1
2018-Jan-11 04:00N 45°24' W 083°06'8 8.4 200 / 81007.7 4.3 4.3
2018-Jan-11 03:00N 45°24' W 083°18'310.3 200 / 71007.8 3.5 3.5
2018-Jan-11 02:40N 45°27' W 083°20'1 8.1
2018-Jan-11 02:30N 45°28' W 083°22'4 8.2
2018-Jan-11 02:00N 45°30' W 083°27'2195.7
2018-Jan-11 02:00N 45°30' W 083°24'714.1 230 / 51007.6 4.5 4.5
2018-Jan-11 01:30N 45°33' W 083°33'713.9
2018-Jan-11 01:00N 45°36' W 083°42'1256.8 260 / 51006.7 4.4 4.4
2018-Jan-11 00:59N 45°36' W 083°41'612.2
2018-Jan-11 00:30N 45°39' W 083°48'510.2
2018-Jan-11 00:00N 45°42' W 083°54'   250 / 61006.1 4.4 4.3
Track history (hours):
 
Tides and Currents Weather Stations Pressure Air Temp Water Temp Dewpoint Dewpoint Depression Visibility Wind Speed Wind Dir Waves Ship Positions

Canadian Enterprise

Last reported at 2018-Jan-21 00:00 UTC. Time now 2018-Jan-21 01:10 UTC.
Position N 43°42' W 081°42'.

Length 27 m; draft 4.2 m.

Type: Tug. MMSI: 314954697.

Wind from 180 at 4 knots

Barometer 1015.2 mb
Air temperature 2.4 ° C
Dewpoint 1.6 ° C

Date/timePositionNaut miles runAvg speedWind from/ knotsBaromVisibWave heightAir tempDewpointWater temp
2018-Jan-21 00:00N 43°42' W 081°42'0 0.0 180 / 41015.2 2.4 1.6
2018-Jan-20 23:00N 43°42' W 081°42'0 0.0 190 / 31014.5 2.0 1.8
2018-Jan-20 22:00N 43°42' W 081°42'0 0.0 190 / 11014.3 1.5 1.4
2018-Jan-20 21:00N 43°42' W 081°42'0 0.0 190 / 31014.0 2.0 1.8
2018-Jan-20 20:00N 43°42' W 081°42'0 0.0 190 / 61012.6 2.1 1.9
2018-Jan-20 19:00N 43°42' W 081°42'0 0.0 190 / 61012.4 1.4 1.2
2018-Jan-20 18:00N 43°42' W 081°42'0 0.0 190 / 31011.9 1.7 1.5
2018-Jan-20 17:00N 43°42' W 081°42'0 0.0 180 / 61012.1 1.5 1.3
2018-Jan-20 16:00N 43°42' W 081°42'0 0.0 170 / 41012.2 1.4 1.2
2018-Jan-20 15:00N 43°42' W 081°42'0 0.0 160 / 31011.2 1.0 0.8
2018-Jan-20 14:00N 43°42' W 081°42'4 4.3 170 / 51010.3 0.3 0.2
2018-Jan-20 13:00N 43°42' W 081°48'4 4.3 210 / 71009.5 0.8 0.7
2018-Jan-20 12:00N 43°42' W 081°54'0 0.0 230 / 141008.0 2.3 1.7
2018-Jan-20 11:00N 43°42' W 081°54'0 0.0 210 / 151007.3 1.0 0.8
2018-Jan-20 10:00N 43°42' W 081°54'0 0.0 200 / 191006.2 1.1 0.7
2018-Jan-20 09:00N 43°42' W 081°54'0 0.0 200 / 131005.3 1.2 0.4
2018-Jan-20 08:00N 43°42' W 081°54'0 0.0 210 / 161005.4 1.5 0.2
2018-Jan-20 07:00N 43°42' W 081°54'0 0.0 200 / 201004.7 1.6 0.3
2018-Jan-20 06:00N 43°42' W 081°54'6 6.0 210 / 141004.5 1.6 0.4
2018-Jan-20 05:00N 43°36' W 081°54'6 1.2 210 / 131004.6 1.4 0.7
2018-Jan-20 00:00N 43°42' W 081°54'6 6.0 180 / 221006.5 -0.4-1.2
2018-Jan-19 23:00N 43°36' W 081°54'12 6.0 180 / 151007.1 -0.8-1.1
2018-Jan-19 21:00N 43°48' W 081°54'0 0.0 190 / 251007.8 -0.8-1.7
2018-Jan-19 20:00N 43°48' W 081°54'0 0.0 180 / 221008.2 -1.3-2.3
2018-Jan-19 19:00N 43°48' W 081°54'0 0.0 180 / 231008.9 -1.8-3.1
2018-Jan-19 18:00N 43°48' W 081°54'0 0.0 190 / 241010.3 -2.0-2.7
2018-Jan-19 17:00N 43°48' W 081°54'0 0.0 200 / 211011.3 -2.3-2.6
2018-Jan-19 16:00N 43°48' W 081°54'6 6.0 200 / 201011.7 -2.3-2.5
2018-Jan-19 15:00N 43°42' W 081°54'0 0.0 200 / 171011.8 -2.5-2.8
2018-Jan-19 14:00N 43°42' W 081°54'0 0.0 200 / 201011.9 -2.4-2.6
2018-Jan-19 13:00N 43°42' W 081°54'0 0.0 210 / 61012.2 -1.5-1.8
2018-Jan-19 12:00N 43°42' W 081°54'0 0.0 210 / 131011.7 -2.1-2.3
2018-Jan-19 11:00N 43°42' W 081°54'0 0.0 230 / 201011.9 -1.6-3.0
2018-Jan-19 10:00N 43°42' W 081°54'0 0.0 240 / 201012.1 -1.4-2.8
2018-Jan-19 09:00N 43°42' W 081°54'0 0.0 240 / 181012.1 -1.1-2.1
2018-Jan-19 08:00N 43°42' W 081°54'0 0.0 240 / 171011.8 -1.6-3.7
2018-Jan-19 07:00N 43°42' W 081°54'6 6.0 240 / 231011.8 -1.2-4.0
2018-Jan-19 06:00N 43°48' W 081°54'6 6.0 240 / 191012.2 -0.4-4.5
2018-Jan-19 05:00N 43°42' W 081°54'6 6.0 240 / 161012.7 -1.0-5.7
2018-Jan-19 04:00N 43°36' W 081°54'7 7.4 190 / 81013.4 -2.3-3.9
2018-Jan-19 03:00N 43°30' W 082°00'7 7.4 210 / 91013.2 -1.1-4.6
2018-Jan-19 02:00N 43°24' W 082°06'7 7.4 200 / 141012.2 1.7-3.7
2018-Jan-19 01:00N 43°18' W 082°12'7 7.4 200 / 171012.9 2.0-3.9
2018-Jan-19 00:00N 43°12' W 082°18'4 4.4 200 / 141013.2 4.2-3.2
2018-Jan-18 23:00N 43°12' W 082°24'1212.0 190 / 101014.3 1.8-4.4
2018-Jan-18 22:00N 43°00' W 082°24'7 7.4 200 / 111015.1 -2.6-7.3
2018-Jan-18 21:00N 42°54' W 082°30'1212.0 200 / 111015.4 -3.0-8.0
2018-Jan-18 20:00N 42°42' W 082°30'6 3.0 210 / 12 -3.0-8.7
2018-Jan-18 18:00N 42°36' W 082°30'4 4.4 220 / 91018.1 -3.5-9.0
2018-Jan-18 17:00N 42°36' W 082°36'0 0.0 210 / 51019.1 -3.1-8.3
2018-Jan-18 16:00N 42°36' W 082°36'7 7.5 220 / 81019.9 -5.3-9.0
2018-Jan-18 15:00N 42°30' W 082°42'0 0.0 220 / 71019.5 -3.0-7.4
2018-Jan-18 14:00N 42°30' W 082°42'7 7.5 230 / 111019.7 -7.8-9.8
2018-Jan-18 13:00N 42°24' W 082°48'7 7.5 220 / 131019.8 -8.3-10.8
2018-Jan-18 12:00N 42°18' W 082°54'9 8.9 250 / 91019.9 -8.5-10.8
2018-Jan-18 11:00N 42°18' W 083°06'0 0.0 230 / 9 -9.8-12.4
2018-Jan-18 10:00N 42°18' W 083°06'0 0.0 230 / 8 -9.8-12.5
2018-Jan-18 09:00N 42°18' W 083°06'0 0.0 230 / 9 -9.8-12.9
2018-Jan-18 08:00N 42°18' W 083°06'0 0.0 240 / 9 -9.4-13.0
2018-Jan-18 07:00N 42°18' W 083°06'0 0.0 240 / 10 -8.8-13.0
2018-Jan-18 06:00N 42°18' W 083°06'0 0.0 230 / 11 -8.3-12.7
2018-Jan-18 05:00N 42°18' W 083°06'0 0.0 230 / 11 -8.2-12.4
2018-Jan-18 04:00N 42°18' W 083°06'0 0.0 230 / 10 -8.0-12.0
2018-Jan-18 03:00N 42°18' W 083°06'0 0.0 230 / 11 -7.8-11.8
2018-Jan-18 02:00N 42°18' W 083°06'0 0.0 220 / 9 -7.1-11.1
2018-Jan-18 01:00N 42°18' W 083°06'0 0.0 230 / 11 -6.9-10.3
2018-Jan-18 00:00N 42°18' W 083°06'0 0.0 220 / 11 -6.7-9.5
2018-Jan-17 23:00N 42°18' W 083°06'0 0.0 220 / 12 -6.7-8.7
2018-Jan-17 22:00N 42°18' W 083°06'0 0.0 220 / 12 -6.1-9.3
2018-Jan-17 21:00N 42°18' W 083°06'0 0.0 230 / 9 -5.2-9.2
2018-Jan-17 20:00N 42°18' W 083°06'0 0.0 230 / 10 -4.9-9.2
2018-Jan-17 19:00N 42°18' W 083°06'0 0.0 220 / 9 -5.3-9.7
2018-Jan-17 18:00N 42°18' W 083°06'0 0.0 230 / 6 -6.6-10.8
2018-Jan-17 17:00N 42°18' W 083°06'0 0.0 220 / 5 -8.1-12.2
2018-Jan-17 16:00N 42°18' W 083°06'0 0.0 230 / 1 -10.3-12.4
2018-Jan-17 15:00N 42°18' W 083°06'0 0.0 230 / 2 -11.4-12.2
2018-Jan-17 14:00N 42°18' W 083°06'0 0.0 230 / 4 -13.5-13.7
2018-Jan-17 13:00N 42°18' W 083°06'0 0.0 -14.2-14.4
2018-Jan-17 12:00N 42°18' W 083°06'0 0.0 230 / 2 -14.5-14.8
2018-Jan-17 11:00N 42°18' W 083°06'0 0.0 250 / 3 -13.7-14.0
2018-Jan-17 10:00N 42°18' W 083°06'0 0.0 210 / 2 -13.8-14.0
2018-Jan-17 09:00N 42°18' W 083°06'0 0.0 -13.6-13.8
2018-Jan-17 08:00N 42°18' W 083°06'0 0.0 220 / 1 -13.2-13.5
2018-Jan-17 07:00N 42°18' W 083°06'0 0.0 240 / 1 -11.6-12.5
2018-Jan-17 06:00N 42°18' W 083°06'0 0.0 240 / 3 -11.2-11.9
2018-Jan-17 05:00N 42°18' W 083°06'0 0.0 240 / 2 -10.9-11.6
2018-Jan-17 04:00N 42°18' W 083°06'0 0.0 230 / 2 -11.2-11.7
2018-Jan-17 03:00N 42°18' W 083°06'0 0.0 230 / 2 -12.0-12.3
2018-Jan-17 02:00N 42°18' W 083°06'0 0.0 230 / 1 -11.9-12.5
2018-Jan-17 01:00N 42°18' W 083°06'0 0.0 230 / 1 -11.7-12.5
2018-Jan-17 00:00N 42°18' W 083°06'0 0.0 230 / 2 -11.6-12.2
2018-Jan-16 23:00N 42°18' W 083°06'0 0.0 230 / 2 -10.9-11.2
2018-Jan-16 22:00N 42°18' W 083°06'0 0.0 220 / 2 -8.8-10.1
2018-Jan-16 21:00N 42°18' W 083°06'0 0.0 250 / 2 -10.5-10.9
2018-Jan-16 20:00N 42°18' W 083°06'32 2.5 240 / 5 -10.5-10.8
2018-Jan-16 07:00N 42°36' W 082°30'0 0.0 1026.3 -5.8-5.9
2018-Jan-16 06:00N 42°36' W 082°30'0 0.0 1026.1 -6.4-6.4
2018-Jan-16 05:00N 42°36' W 082°30'6 2.0 1025.8 -6.0-6.0
2018-Jan-16 02:00N 42°42' W 082°30'0 0.0 060 / 11025.7 -6.6-6.7
2018-Jan-16 01:00N 42°42' W 082°30'0 0.0 080 / 11025.7 -6.7-6.8
2018-Jan-16 00:00N 42°42' W 082°30'0 0.0 100 / 11025.6 -6.8-6.9
2018-Jan-15 23:00N 42°42' W 082°30'6 6.0 080 / 2 -6.8-7.0
2018-Jan-15 22:00N 42°48' W 082°30'7 7.4 150 / 111025.4 -6.9-7.0
2018-Jan-15 21:00N 42°54' W 082°24'1212.0 100 / 71025.3 -7.4-7.7
2018-Jan-15 20:00N 43°06' W 082°24'0 0.0 110 / 121025.6 -7.7-8.0
2018-Jan-15 17:00N 43°06' W 082°24'0 0.0 140 / 101028.9 -8.4-8.8
2018-Jan-15 16:00N 43°06' W 082°24'0 0.0 140 / 101029.8 -8.2-10.4
2018-Jan-15 15:00N 43°06' W 082°24'0 0.0 130 / 91029.9 -8.5-11.5
2018-Jan-15 14:00N 43°06' W 082°24'0 0.0 140 / 101030.0 -8.6-11.5
2018-Jan-15 13:00N 43°06' W 082°24'0 0.0 140 / 91030.3 -8.6-11.6
2018-Jan-15 12:00N 43°06' W 082°24'0 0.0 130 / 101030.6 -8.5-11.2
2018-Jan-15 11:00N 43°06' W 082°24'0 0.0 130 / 91031.0 -8.3-11.8
2018-Jan-15 10:00N 43°06' W 082°24'0 0.0 150 / 81031.6 -8.4-13.0
2018-Jan-15 09:00N 43°06' W 082°24'0 0.0 150 / 81032.3 -8.5-12.9
2018-Jan-15 08:00N 43°06' W 082°24'0 0.0 150 / 81032.9 -8.7-12.7
2018-Jan-15 07:00N 43°06' W 082°24'0 0.0 150 / 81032.8 -8.6-12.5
2018-Jan-15 06:00N 43°06' W 082°24'0 0.0 140 / 91033.6 -8.9-12.8
2018-Jan-15 05:00N 43°06' W 082°24'0 0.0 140 / 91034.2 -9.0-12.9
2018-Jan-15 04:00N 43°06' W 082°24'0 0.0 150 / 91034.3 -9.1-12.7
2018-Jan-15 03:00N 43°06' W 082°24'0 0.0 150 / 91035.0 -9.0-13.1
2018-Jan-15 02:00N 43°06' W 082°24'0 0.0 160 / 101035.6 -9.0-13.7
2018-Jan-15 01:00N 43°06' W 082°24'0 0.0 170 / 91035.4 -8.5-13.8
2018-Jan-15 00:00N 43°06' W 082°24'0 0.0 170 / 121035.5 -8.2-13.3
2018-Jan-14 23:00N 43°06' W 082°24'0 0.0 150 / 111035.1 -8.4-12.5
2018-Jan-14 22:00N 43°06' W 082°24'7 7.4 170 / 91035.2 -8.0-14.1
2018-Jan-14 21:00N 43°12' W 082°18'7 7.4 170 / 111035.8 -7.9-14.4
2018-Jan-14 20:00N 43°18' W 082°12'1312.8 190 / 131036.3 -7.9-13.5
2018-Jan-14 19:00N 43°30' W 082°06'1110.6 190 / 101036.8 -8.3-13.7
2018-Jan-14 18:00N 43°36' W 081°54'6 6.0 200 / 91037.6 -8.0-14.6
2018-Jan-14 17:00N 43°42' W 081°54'9 8.7 200 / 91038.3 -8.0-14.2
2018-Jan-14 16:00N 43°42' W 081°42'0 0.0 190 / 51039.4 -8.8-11.6
2018-Jan-14 15:00N 43°42' W 081°42'0 0.0 250 / 31038.9 -8.0-13.9
2018-Jan-14 14:00N 43°42' W 081°42'0 0.0 260 / 21038.2 -8.2-14.1
2018-Jan-14 13:00N 43°42' W 081°42'0 0.0 260 / 61037.9 -8.1-13.6
2018-Jan-14 12:00N 43°42' W 081°42'0 0.0 280 / 101037.4 -8.0-13.2
2018-Jan-14 11:00N 43°42' W 081°42'0 0.0 280 / 101036.7 -8.0-11.2
2018-Jan-14 09:00N 43°42' W 081°42'0 0.0 1036.8 -9.6-9.9
2018-Jan-14 08:00N 43°42' W 081°42'0 0.0 130 / 11036.4 -10.5-10.8
2018-Jan-14 07:00N 43°42' W 081°42'0 0.0 110 / 11035.8 -10.7-11.2
2018-Jan-14 06:00N 43°42' W 081°42'0 0.0 080 / 21035.5 -8.4-10.9
2018-Jan-14 05:00N 43°42' W 081°42'0 0.0 300 / 51035.4 -8.3-14.2
2018-Jan-14 04:00N 43°42' W 081°42'0 0.0 290 / 101035.3 -8.6-12.8
2018-Jan-14 03:00N 43°42' W 081°42'0 0.0 300 / 21035.2 -8.8-11.0
2018-Jan-14 02:00N 43°42' W 081°42'0 0.0 300 / 21034.5 -8.8-14.1
2018-Jan-14 01:00N 43°42' W 081°42'0 0.0 300 / 101034.0 -9.0-12.8
2018-Jan-14 00:00N 43°42' W 081°42'0 0.0 300 / 81033.6 -9.5-10.6
2018-Jan-13 23:00N 43°42' W 081°42'7 0.2 300 / 11033.5 -9.9-10.2
2018-Jan-12 15:00N 43°48' W 081°48'7 7.4 350 / 201010.2 -2.5-2.4
2018-Jan-12 14:00N 43°42' W 081°54'0 0.0 330 / 231009.2 -2.0-1.9
2018-Jan-12 13:00N 43°42' W 081°54'0 0.0 330 / 201007.8 -1.4-1.2
2018-Jan-12 12:00N 43°42' W 081°54'0 0.0 340 / 151006.7 -0.7-0.5
2018-Jan-12 11:00N 43°42' W 081°54'0 0.0 340 / 171006.7 -0.2-0.0
2018-Jan-12 10:00N 43°42' W 081°54'0 0.0 340 / 141005.5 0.3 0.5
2018-Jan-12 09:00N 43°42' W 081°54'0 0.0 340 / 111005.0 1.8 2.0
2018-Jan-12 08:00N 43°42' W 081°54'0 0.0 210 / 131003.9 7.3 7.5
2018-Jan-12 07:00N 43°42' W 081°54'0 0.0 190 / 131004.0 6.0 6.2
2018-Jan-12 06:00N 43°42' W 081°54'0 0.0 180 / 151004.5 6.1 6.3
2018-Jan-12 05:00N 43°42' W 081°54'6 6.0 180 / 51004.6 6.1 6.3
2018-Jan-12 04:00N 43°48' W 081°54'6 6.0 180 / 111005.3 6.0 6.2
2018-Jan-12 03:00N 43°42' W 081°54'0 0.0 170 / 111005.5 5.7 5.9
2018-Jan-12 02:00N 43°42' W 081°54'0 0.0 180 / 121006.1 6.2 6.4
2018-Jan-12 01:00N 43°42' W 081°54'0 0.0 160 / 101007.0 6.1 6.3
2018-Jan-12 00:00N 43°42' W 081°54'0 0.0 170 / 111007.5 6.0 6.2
2018-Jan-11 23:00N 43°42' W 081°54'0 0.0 170 / 131007.9 6.0 6.1
2018-Jan-11 22:00N 43°42' W 081°54'0 0.0 160 / 101008.7 6.1 6.3
2018-Jan-11 21:00N 43°42' W 081°54'0 0.0 160 / 121008.7 5.7 5.8
2018-Jan-11 20:00N 43°42' W 081°54'0 0.0 170 / 91009.1 5.8 5.9
2018-Jan-11 19:00N 43°42' W 081°54'1313.0 180 / 131009.0 5.9 6.0
2018-Jan-11 18:00N 43°42' W 082°12'1514.8 180 / 231009.1 6.6 6.8
2018-Jan-11 17:00N 43°54' W 082°24'1110.5 180 / 201009.3 5.5 5.7
2018-Jan-11 16:00N 44°00' W 082°36'1312.8 170 / 211008.7 4.8 5.0
2018-Jan-11 15:00N 44°12' W 082°42'6 6.0 170 / 231008.7 4.5 4.6
2018-Jan-11 14:00N 44°18' W 082°42'7 7.4 170 / 211008.4 5.4 5.5
2018-Jan-11 13:00N 44°24' W 082°48'6 6.0 170 / 211007.7 5.0 5.1
2018-Jan-11 12:00N 44°30' W 082°48'7 7.4 170 / 191007.6 4.9 5.0
2018-Jan-11 11:00N 44°36' W 082°54'6 6.0 180 / 231007.3 5.3 5.4
2018-Jan-11 10:00N 44°42' W 082°54'6 6.0 190 / 251007.5 6.0 6.2
2018-Jan-11 09:00N 44°48' W 082°54'6 6.0 210 / 191007.7 5.1 5.3
2018-Jan-11 08:00N 44°54' W 082°54'1212.0 200 / 221007.4 4.7 4.8
2018-Jan-11 07:00N 45°06' W 082°54'6 6.0 190 / 221006.8 5.2 5.3
2018-Jan-11 06:00N 45°12' W 082°54'7 7.3 190 / 131007.8 4.1 4.2
2018-Jan-11 05:00N 45°18' W 083°00'7 7.3 200 / 71008.0 4.1 4.1
2018-Jan-11 04:00N 45°24' W 083°06'8 8.4 200 / 81007.7 4.3 4.3
2018-Jan-11 03:00N 45°24' W 083°18'310.3 200 / 71007.8 3.5 3.5
2018-Jan-11 02:40N 45°27' W 083°20'1 8.1
2018-Jan-11 02:30N 45°28' W 083°22'4 8.2
2018-Jan-11 02:00N 45°30' W 083°27'2195.7
2018-Jan-11 02:00N 45°30' W 083°24'714.1 230 / 51007.6 4.5 4.5
2018-Jan-11 01:30N 45°33' W 083°33'713.9
2018-Jan-11 01:00N 45°36' W 083°42'1256.8 260 / 51006.7 4.4 4.4
2018-Jan-11 00:59N 45°36' W 083°41'612.2
2018-Jan-11 00:30N 45°39' W 083°48'510.2
2018-Jan-11 00:00N 45°42' W 083°54'   250 / 61006.1 4.4 4.3

Dump ship's entire track history